sensor_id;sensor_type;location;lat;lon;timestamp;P1;durP1;ratioP1;P2;durP2;ratioP2
43962;SDS011;29622;45.534;9.242;2022-09-20T00:02:33;6.97;;;0.90;;
43962;SDS011;29622;45.534;9.242;2022-09-20T00:07:34;2.17;;;0.70;;
43962;SDS011;29622;45.534;9.242;2022-09-20T00:12:35;1.50;;;0.82;;
43962;SDS011;29622;45.534;9.242;2022-09-20T00:17:36;1.75;;;0.82;;
43962;SDS011;29622;45.534;9.242;2022-09-20T00:22:37;7.45;;;0.85;;
43962;SDS011;29622;45.534;9.242;2022-09-20T00:27:38;1.83;;;0.85;;
43962;SDS011;29622;45.534;9.242;2022-09-20T00:32:39;2.03;;;0.77;;
43962;SDS011;29622;45.534;9.242;2022-09-20T00:37:49;1.35;;;0.60;;
43962;SDS011;29622;45.534;9.242;2022-09-20T00:42:50;2.67;;;1.13;;
43962;SDS011;29622;45.534;9.242;2022-09-20T00:48:05;8.38;;;0.90;;
43962;SDS011;29622;45.534;9.242;2022-09-20T00:53:15;1.85;;;0.80;;
43962;SDS011;29622;45.534;9.242;2022-09-20T00:58:18;3.40;;;0.82;;
43962;SDS011;29622;45.534;9.242;2022-09-20T01:03:20;3.15;;;0.60;;
43962;SDS011;29622;45.534;9.242;2022-09-20T01:08:24;1.90;;;0.90;;
43962;SDS011;29622;45.534;9.242;2022-09-20T01:13:25;1.98;;;0.93;;
43962;SDS011;29622;45.534;9.242;2022-09-20T01:18:29;1.85;;;0.80;;
43962;SDS011;29622;45.534;9.242;2022-09-20T01:23:45;4.45;;;0.90;;
43962;SDS011;29622;45.534;9.242;2022-09-20T01:34:33;5.45;;;1.33;;
43962;SDS011;29622;45.534;9.242;2022-09-20T01:40:19;3.42;;;0.90;;
43962;SDS011;29622;45.534;9.242;2022-09-20T01:55:51;2.65;;;0.80;;
43962;SDS011;29622;45.534;9.242;2022-09-20T02:01:30;2.42;;;0.75;;
43962;SDS011;29622;45.534;9.242;2022-09-20T02:18:36;4.30;;;1.00;;
43962;SDS011;29622;45.534;9.242;2022-09-20T02:28:41;1.42;;;0.55;;
43962;SDS011;29622;45.534;9.242;2022-09-20T02:39:34;1.63;;;0.63;;
43962;SDS011;29622;45.534;9.242;2022-09-20T02:50:15;2.13;;;0.60;;
43962;SDS011;29622;45.534;9.242;2022-09-20T03:06:07;3.70;;;1.08;;
43962;SDS011;29622;45.534;9.242;2022-09-20T03:11:36;5.95;;;1.10;;
43962;SDS011;29622;45.534;9.242;2022-09-20T03:22:27;2.47;;;0.90;;
43962;SDS011;29622;45.534;9.242;2022-09-20T03:33:25;8.77;;;1.00;;
43962;SDS011;29622;45.534;9.242;2022-09-20T04:01:38;3.80;;;0.88;;
43962;SDS011;29622;45.534;9.242;2022-09-20T04:07:16;5.38;;;1.70;;
43962;SDS011;29622;45.534;9.242;2022-09-20T04:17:24;10.90;;;4.20;;
43962;SDS011;29622;45.534;9.242;2022-09-20T04:23:24;4.80;;;2.45;;
43962;SDS011;29622;45.534;9.242;2022-09-20T04:35:59;4.53;;;2.00;;
43962;SDS011;29622;45.534;9.242;2022-09-20T05:19:31;10.60;;;3.40;;
43962;SDS011;29622;45.534;9.242;2022-09-20T05:30:24;9.15;;;3.15;;
43962;SDS011;29622;45.534;9.242;2022-09-20T05:35:46;18.25;;;3.63;;
43962;SDS011;29622;45.534;9.242;2022-09-20T05:51:37;18.60;;;4.72;;
43962;SDS011;29622;45.534;9.242;2022-09-20T06:02:13;14.90;;;3.78;;
43962;SDS011;29622;45.534;9.242;2022-09-20T06:07:49;17.20;;;3.60;;
43962;SDS011;29622;45.534;9.242;2022-09-20T06:13:10;6.00;;;2.80;;
43962;SDS011;29622;45.534;9.242;2022-09-20T06:23:30;23.58;;;4.43;;
43962;SDS011;29622;45.534;9.242;2022-09-20T06:28:34;10.75;;;2.00;;
43962;SDS011;29622;45.534;9.242;2022-09-20T06:33:42;9.63;;;2.40;;
43962;SDS011;29622;45.534;9.242;2022-09-20T06:38:53;6.07;;;2.28;;
43962;SDS011;29622;45.534;9.242;2022-09-20T06:44:40;11.43;;;2.55;;
43962;SDS011;29622;45.534;9.242;2022-09-20T06:49:42;6.20;;;2.70;;
43962;SDS011;29622;45.534;9.242;2022-09-20T06:54:46;14.73;;;3.95;;
43962;SDS011;29622;45.534;9.242;2022-09-20T06:59:49;14.63;;;2.80;;
43962;SDS011;29622;45.534;9.242;2022-09-20T07:04:49;8.93;;;2.40;;
43962;SDS011;29622;45.534;9.242;2022-09-20T07:09:54;4.82;;;2.67;;
43962;SDS011;29622;45.534;9.242;2022-09-20T07:14:55;3.55;;;1.58;;
43962;SDS011;29622;45.534;9.242;2022-09-20T07:19:55;12.13;;;3.15;;
43962;SDS011;29622;45.534;9.242;2022-09-20T07:24:56;6.40;;;1.60;;
43962;SDS011;29622;45.534;9.242;2022-09-20T07:29:57;4.95;;;2.50;;
43962;SDS011;29622;45.534;9.242;2022-09-20T07:34:58;9.55;;;2.38;;
43962;SDS011;29622;45.534;9.242;2022-09-20T07:40:00;18.35;;;2.83;;
43962;SDS011;29622;45.534;9.242;2022-09-20T07:45:01;6.80;;;1.60;;
43962;SDS011;29622;45.534;9.242;2022-09-20T07:50:02;5.18;;;1.40;;
43962;SDS011;29622;45.534;9.242;2022-09-20T07:55:03;8.43;;;1.25;;
43962;SDS011;29622;45.534;9.242;2022-09-20T08:00:05;5.22;;;2.45;;
43962;SDS011;29622;45.534;9.242;2022-09-20T08:05:12;5.60;;;2.45;;
43962;SDS011;29622;45.534;9.242;2022-09-20T08:10:13;6.95;;;2.75;;
43962;SDS011;29622;45.534;9.242;2022-09-20T08:15:13;3.65;;;1.65;;
43962;SDS011;29622;45.534;9.242;2022-09-20T08:20:14;8.75;;;2.97;;
43962;SDS011;29622;45.534;9.242;2022-09-20T08:25:15;6.03;;;1.33;;
43962;SDS011;29622;45.534;9.242;2022-09-20T08:30:16;5.50;;;1.75;;
43962;SDS011;29622;45.534;9.242;2022-09-20T08:35:17;3.00;;;1.30;;
43962;SDS011;29622;45.534;9.242;2022-09-20T08:40:18;5.15;;;1.17;;
43962;SDS011;29622;45.534;9.242;2022-09-20T08:45:21;8.73;;;1.25;;
43962;SDS011;29622;45.534;9.242;2022-09-20T08:50:24;2.35;;;1.20;;
43962;SDS011;29622;45.534;9.242;2022-09-20T08:55:25;7.85;;;0.98;;
43962;SDS011;29622;45.534;9.242;2022-09-20T09:00:31;4.03;;;1.92;;
43962;SDS011;29622;45.534;9.242;2022-09-20T09:05:35;4.18;;;1.02;;
43962;SDS011;29622;45.534;9.242;2022-09-20T09:10:39;2.33;;;0.90;;
43962;SDS011;29622;45.534;9.242;2022-09-20T09:15:49;4.22;;;1.45;;
43962;SDS011;29622;45.534;9.242;2022-09-20T09:20:53;2.80;;;1.00;;
43962;SDS011;29622;45.534;9.242;2022-09-20T09:25:54;2.65;;;1.13;;
43962;SDS011;29622;45.534;9.242;2022-09-20T09:30:57;3.40;;;0.95;;
43962;SDS011;29622;45.534;9.242;2022-09-20T09:36:22;4.90;;;1.20;;
43962;SDS011;29622;45.534;9.242;2022-09-20T09:41:28;2.13;;;1.15;;
43962;SDS011;29622;45.534;9.242;2022-09-20T09:46:33;2.90;;;0.60;;
43962;SDS011;29622;45.534;9.242;2022-09-20T09:51:34;1.70;;;1.15;;
43962;SDS011;29622;45.534;9.242;2022-09-20T09:56:41;3.30;;;1.10;;
43962;SDS011;29622;45.534;9.242;2022-09-20T10:07:23;3.58;;;0.90;;
43962;SDS011;29622;45.534;9.242;2022-09-20T10:12:49;4.05;;;0.95;;
43962;SDS011;29622;45.534;9.242;2022-09-20T10:28:37;2.28;;;0.75;;
43962;SDS011;29622;45.534;9.242;2022-09-20T10:49:34;3.40;;;1.45;;
43962;SDS011;29622;45.534;9.242;2022-09-20T11:10:40;6.50;;;1.27;;
43962;SDS011;29622;45.534;9.242;2022-09-20T11:15:50;4.03;;;1.15;;
43962;SDS011;29622;45.534;9.242;2022-09-20T11:21:01;2.88;;;0.80;;
43962;SDS011;29622;45.534;9.242;2022-09-20T11:26:13;7.82;;;1.25;;
43962;SDS011;29622;45.534;9.242;2022-09-20T11:31:21;2.35;;;0.70;;
43962;SDS011;29622;45.534;9.242;2022-09-20T11:41:30;3.60;;;1.13;;
43962;SDS011;29622;45.534;9.242;2022-09-20T11:46:33;1.85;;;0.90;;
43962;SDS011;29622;45.534;9.242;2022-09-20T11:57:31;4.97;;;1.27;;
43962;SDS011;29622;45.534;9.242;2022-09-20T12:02:34;2.55;;;1.13;;
43962;SDS011;29622;45.534;9.242;2022-09-20T12:07:53;4.10;;;1.42;;
43962;SDS011;29622;45.534;9.242;2022-09-20T12:12:58;2.60;;;1.13;;
43962;SDS011;29622;45.534;9.242;2022-09-20T12:18:10;2.45;;;1.15;;
43962;SDS011;29622;45.534;9.242;2022-09-20T12:28:44;2.25;;;0.63;;
43962;SDS011;29622;45.534;9.242;2022-09-20T12:39:02;1.60;;;0.70;;
43962;SDS011;29622;45.534;9.242;2022-09-20T12:54:52;3.47;;;1.10;;
43962;SDS011;29622;45.534;9.242;2022-09-20T12:59:54;2.33;;;1.55;;
43962;SDS011;29622;45.534;9.242;2022-09-20T13:04:56;6.20;;;1.20;;
43962;SDS011;29622;45.534;9.242;2022-09-20T13:09:58;3.22;;;1.38;;
43962;SDS011;29622;45.534;9.242;2022-09-20T13:15:16;6.28;;;2.80;;
43962;SDS011;29622;45.534;9.242;2022-09-20T13:20:22;5.25;;;1.23;;
43962;SDS011;29622;45.534;9.242;2022-09-20T13:25:25;4.68;;;1.48;;
43962;SDS011;29622;45.534;9.242;2022-09-20T13:30:28;2.97;;;1.00;;
43962;SDS011;29622;45.534;9.242;2022-09-20T13:35:31;6.07;;;1.00;;
43962;SDS011;29622;45.534;9.242;2022-09-20T13:40:34;7.30;;;1.42;;
43962;SDS011;29622;45.534;9.242;2022-09-20T13:45:34;4.97;;;1.67;;
43962;SDS011;29622;45.534;9.242;2022-09-20T13:50:35;7.35;;;1.30;;
43962;SDS011;29622;45.534;9.242;2022-09-20T13:55:38;3.88;;;1.70;;
43962;SDS011;29622;45.534;9.242;2022-09-20T14:00:45;4.63;;;1.17;;
43962;SDS011;29622;45.534;9.242;2022-09-20T14:05:50;4.50;;;1.40;;
43962;SDS011;29622;45.534;9.242;2022-09-20T14:11:04;5.38;;;1.05;;
43962;SDS011;29622;45.534;9.242;2022-09-20T14:16:33;8.57;;;1.40;;
43962;SDS011;29622;45.534;9.242;2022-09-20T14:21:38;9.88;;;1.42;;
43962;SDS011;29622;45.534;9.242;2022-09-20T14:26:42;4.25;;;1.08;;
43962;SDS011;29622;45.534;9.242;2022-09-20T14:32:20;6.75;;;1.70;;
43962;SDS011;29622;45.534;9.242;2022-09-20T14:37:41;5.57;;;1.73;;
43962;SDS011;29622;45.534;9.242;2022-09-20T14:42:47;9.68;;;1.27;;
43962;SDS011;29622;45.534;9.242;2022-09-20T14:48:04;4.70;;;1.38;;
43962;SDS011;29622;45.534;9.242;2022-09-20T14:58:17;1.90;;;0.90;;
43962;SDS011;29622;45.534;9.242;2022-09-20T15:03:25;7.13;;;1.45;;
43962;SDS011;29622;45.534;9.242;2022-09-20T15:08:28;4.97;;;1.35;;
43962;SDS011;29622;45.534;9.242;2022-09-20T15:13:28;2.95;;;1.30;;
43962;SDS011;29622;45.534;9.242;2022-09-20T15:18:34;4.38;;;1.80;;
43962;SDS011;29622;45.534;9.242;2022-09-20T15:23:39;5.88;;;1.83;;
43962;SDS011;29622;45.534;9.242;2022-09-20T15:28:40;10.35;;;2.40;;
43962;SDS011;29622;45.534;9.242;2022-09-20T15:33:40;7.22;;;1.55;;
43962;SDS011;29622;45.534;9.242;2022-09-20T15:38:41;8.45;;;1.60;;
43962;SDS011;29622;45.534;9.242;2022-09-20T15:43:42;4.15;;;2.00;;
43962;SDS011;29622;45.534;9.242;2022-09-20T15:48:43;7.47;;;1.58;;
43962;SDS011;29622;45.534;9.242;2022-09-20T15:53:53;7.32;;;2.05;;
43962;SDS011;29622;45.534;9.242;2022-09-20T15:58:59;5.45;;;1.85;;
43962;SDS011;29622;45.534;9.242;2022-09-20T16:04:05;4.00;;;1.70;;
43962;SDS011;29622;45.534;9.242;2022-09-20T16:09:06;8.20;;;1.35;;
43962;SDS011;29622;45.534;9.242;2022-09-20T16:14:08;6.32;;;2.42;;
43962;SDS011;29622;45.534;9.242;2022-09-20T16:19:09;7.57;;;2.42;;
43962;SDS011;29622;45.534;9.242;2022-09-20T16:24:32;36.47;;;8.07;;
43962;SDS011;29622;45.534;9.242;2022-09-20T16:29:34;12.23;;;3.47;;
43962;SDS011;29622;45.534;9.242;2022-09-20T16:34:35;6.45;;;2.53;;
43962;SDS011;29622;45.534;9.242;2022-09-20T16:39:36;5.82;;;2.20;;
43962;SDS011;29622;45.534;9.242;2022-09-20T16:44:37;5.82;;;1.77;;
43962;SDS011;29622;45.534;9.242;2022-09-20T16:49:39;3.88;;;1.77;;
43962;SDS011;29622;45.534;9.242;2022-09-20T16:54:40;6.03;;;2.83;;
43962;SDS011;29622;45.534;9.242;2022-09-20T16:59:40;7.32;;;3.60;;
43962;SDS011;29622;45.534;9.242;2022-09-20T17:04:41;6.00;;;2.47;;
43962;SDS011;29622;45.534;9.242;2022-09-20T17:09:42;5.63;;;2.80;;
43962;SDS011;29622;45.534;9.242;2022-09-20T17:14:43;8.13;;;2.97;;
43962;SDS011;29622;45.534;9.242;2022-09-20T17:19:43;11.70;;;4.00;;
43962;SDS011;29622;45.534;9.242;2022-09-20T17:24:44;31.10;;;4.10;;
43962;SDS011;29622;45.534;9.242;2022-09-20T17:29:45;19.15;;;4.22;;
43962;SDS011;29622;45.534;9.242;2022-09-20T17:34:46;6.32;;;2.47;;
43962;SDS011;29622;45.534;9.242;2022-09-20T17:39:47;9.15;;;3.05;;
43962;SDS011;29622;45.534;9.242;2022-09-20T17:44:48;14.68;;;3.22;;
43962;SDS011;29622;45.534;9.242;2022-09-20T17:49:49;15.57;;;3.75;;
43962;SDS011;29622;45.534;9.242;2022-09-20T17:54:50;19.40;;;4.05;;
43962;SDS011;29622;45.534;9.242;2022-09-20T17:59:50;8.43;;;2.80;;
43962;SDS011;29622;45.534;9.242;2022-09-20T18:04:51;6.32;;;2.47;;
43962;SDS011;29622;45.534;9.242;2022-09-20T18:09:51;22.05;;;3.50;;
43962;SDS011;29622;45.534;9.242;2022-09-20T18:14:52;8.63;;;2.45;;
43962;SDS011;29622;45.534;9.242;2022-09-20T18:19:55;8.40;;;3.08;;
43962;SDS011;29622;45.534;9.242;2022-09-20T18:24:56;9.07;;;2.85;;
43962;SDS011;29622;45.534;9.242;2022-09-20T18:29:57;7.65;;;2.75;;
43962;SDS011;29622;45.534;9.242;2022-09-20T18:34:57;5.18;;;2.55;;
43962;SDS011;29622;45.534;9.242;2022-09-20T18:39:58;16.52;;;3.83;;
43962;SDS011;29622;45.534;9.242;2022-09-20T18:44:58;29.90;;;9.75;;
43962;SDS011;29622;45.534;9.242;2022-09-20T18:49:59;9.15;;;3.72;;
43962;SDS011;29622;45.534;9.242;2022-09-20T18:55:00;16.48;;;3.90;;
43962;SDS011;29622;45.534;9.242;2022-09-20T19:00:02;10.55;;;3.35;;
43962;SDS011;29622;45.534;9.242;2022-09-20T19:05:09;12.38;;;3.88;;
43962;SDS011;29622;45.534;9.242;2022-09-20T19:10:33;10.80;;;3.95;;
43962;SDS011;29622;45.534;9.242;2022-09-20T19:26:27;14.18;;;4.65;;
43962;SDS011;29622;45.534;9.242;2022-09-20T19:31:32;8.75;;;4.07;;
43962;SDS011;29622;45.534;9.242;2022-09-20T19:36:52;17.88;;;5.05;;
43962;SDS011;29622;45.534;9.242;2022-09-20T19:42:08;11.10;;;4.38;;
43962;SDS011;29622;45.534;9.242;2022-09-20T19:53:13;23.40;;;7.00;;
43962;SDS011;29622;45.534;9.242;2022-09-20T19:58:16;30.25;;;6.18;;
43962;SDS011;29622;45.534;9.242;2022-09-20T20:03:17;7.78;;;4.15;;
43962;SDS011;29622;45.534;9.242;2022-09-20T20:08:22;19.88;;;7.68;;
43962;SDS011;29622;45.534;9.242;2022-09-20T20:13:39;16.17;;;5.85;;
43962;SDS011;29622;45.534;9.242;2022-09-20T20:24:54;10.40;;;4.90;;
43962;SDS011;29622;45.534;9.242;2022-09-20T20:29:55;12.88;;;4.53;;
43962;SDS011;29622;45.534;9.242;2022-09-20T20:34:56;45.92;;;10.80;;
43962;SDS011;29622;45.534;9.242;2022-09-20T20:39:57;15.60;;;5.13;;
43962;SDS011;29622;45.534;9.242;2022-09-20T20:44:57;17.17;;;5.72;;
43962;SDS011;29622;45.534;9.242;2022-09-20T20:49:58;18.83;;;6.32;;
43962;SDS011;29622;45.534;9.242;2022-09-20T20:54:59;17.30;;;5.00;;
43962;SDS011;29622;45.534;9.242;2022-09-20T21:00:00;24.55;;;10.85;;
43962;SDS011;29622;45.534;9.242;2022-09-20T21:05:01;16.38;;;6.70;;
43962;SDS011;29622;45.534;9.242;2022-09-20T21:10:01;16.10;;;4.50;;
43962;SDS011;29622;45.534;9.242;2022-09-20T21:15:02;12.70;;;4.95;;
43962;SDS011;29622;45.534;9.242;2022-09-20T21:20:03;13.85;;;4.70;;
43962;SDS011;29622;45.534;9.242;2022-09-20T21:25:05;13.27;;;4.88;;
43962;SDS011;29622;45.534;9.242;2022-09-20T21:30:07;11.80;;;4.60;;
43962;SDS011;29622;45.534;9.242;2022-09-20T21:35:08;8.80;;;4.55;;
43962;SDS011;29622;45.534;9.242;2022-09-20T21:40:08;17.08;;;4.15;;
43962;SDS011;29622;45.534;9.242;2022-09-20T21:45:09;15.30;;;4.10;;
43962;SDS011;29622;45.534;9.242;2022-09-20T21:50:10;15.88;;;4.28;;
43962;SDS011;29622;45.534;9.242;2022-09-20T21:55:10;8.80;;;3.78;;
43962;SDS011;29622;45.534;9.242;2022-09-20T22:00:11;10.20;;;3.97;;
43962;SDS011;29622;45.534;9.242;2022-09-20T22:05:12;13.32;;;4.65;;
43962;SDS011;29622;45.534;9.242;2022-09-20T22:10:13;12.43;;;3.80;;
43962;SDS011;29622;45.534;9.242;2022-09-20T22:15:14;9.75;;;3.88;;
43962;SDS011;29622;45.534;9.242;2022-09-20T22:20:15;10.75;;;4.03;;
43962;SDS011;29622;45.534;9.242;2022-09-20T22:25:16;12.25;;;4.28;;
43962;SDS011;29622;45.534;9.242;2022-09-20T22:30:17;11.75;;;4.07;;
43962;SDS011;29622;45.534;9.242;2022-09-20T22:35:17;12.77;;;3.70;;
43962;SDS011;29622;45.534;9.242;2022-09-20T22:40:18;10.70;;;3.30;;
43962;SDS011;29622;45.534;9.242;2022-09-20T22:45:18;11.88;;;4.13;;
43962;SDS011;29622;45.534;9.242;2022-09-20T22:50:19;8.07;;;2.75;;
43962;SDS011;29622;45.534;9.242;2022-09-20T22:55:20;7.53;;;2.33;;
43962;SDS011;29622;45.534;9.242;2022-09-20T23:00:23;10.25;;;2.28;;
43962;SDS011;29622;45.534;9.242;2022-09-20T23:05:24;21.00;;;3.78;;
43962;SDS011;29622;45.534;9.242;2022-09-20T23:10:25;10.15;;;3.30;;
43962;SDS011;29622;45.534;9.242;2022-09-20T23:15:26;11.25;;;3.88;;
43962;SDS011;29622;45.534;9.242;2022-09-20T23:20:27;8.80;;;2.40;;
43962;SDS011;29622;45.534;9.242;2022-09-20T23:25:28;6.13;;;3.13;;
43962;SDS011;29622;45.534;9.242;2022-09-20T23:30:29;5.13;;;2.20;;
43962;SDS011;29622;45.534;9.242;2022-09-20T23:35:30;7.28;;;2.08;;
43962;SDS011;29622;45.534;9.242;2022-09-20T23:40:32;7.10;;;2.30;;
43962;SDS011;29622;45.534;9.242;2022-09-20T23:45:32;7.28;;;2.20;;
43962;SDS011;29622;45.534;9.242;2022-09-20T23:50:33;5.47;;;1.73;;
43962;SDS011;29622;45.534;9.242;2022-09-20T23:55:34;6.40;;;1.98;;
